ブラジリア の空港の天気 - METARとTAF

ブラジリア国際空港 ( SBBR / BSB ) - ブラジル ブラジリア
飛行場実況気象(Metar)
観測時間09/24 20:00 BRT (09/24 23:00 UTC)
風向・風速東南東 5m/s
視程10km以上
天気現象
全天の4割程度の雲 雲底高度 1220m
少しの雲 雲底高度 1370m
気温23℃
湿度53%
気圧1020hPa
METARSBBR 242300Z 12009KT 070V190 9999 TS SCT040 FEW045CB 23/13 Q1020
過去の天気等 Google飛行場航空写真 Wunderground天気予報

過去48時間のMETAR

飛行場予報(TAF)
発表時間: 9/24 12:30 BRT (9/24 15:30 UTC)
予報対象時間: 24日15時 BRT ~ 25日15時 BRT
風向・風速北北東 4m/s
視程9000m
なし
24日16時 BRT ~ 24日19時 BRT に 確率 40% で一時的に
視程6000m
天気現象雷雨
全天の4割程度の雲 雲底高度 1220m
少しの積乱雲 雲底高度 1370m
24日19時 BRT ~ 24日21時 BRT に徐々に
風向・風速北北西 3m/s
25日0時 BRT ~ 25日2時 BRT に徐々に
風向・風速静穏
25日6時 BRT ~ 25日8時 BRT に徐々に
風向・風速東北東 3m/s
25日9時 BRT ~ 25日11時 BRT に徐々に
風向・風速不定 3m/s
全天の4割程度の雲 雲底高度 1220m
TAF SBBR 241530Z 2418/2518 02008KT 9000 NSC TN19/2509Z TX30/2516Z
PROB40 TEMPO 2419/2422 6000 TSRA SCT040 FEW045CB
BECMG 2422/2424 33005KT
BECMG 2503/2505 00000KT
BECMG 2509/2511 07006KT
BECMG 2512/2514 VRB06KT SCT040 RMK PGE